Irmo, SC

8:45 PM EST on December 21, 2014 (GMT -0500)
Columbia Metro | Change Station
CLOSE
Current Station
Airport
Location: Columbia,
Elevation: 223 ft
Nearby Weather Stations

Elev 223 ft 33.94 °N, 81.12 °W | Updated 15 minutes ago

Overcast
Overcast
49 °F
Feels Like 49 °F
N
6
Wind Variable Wind from ENE

Today
High -- | Low -- °F
--% Chance of Precip.
Yesterday
High -- | Low -- °F
Precip. -- in
7:26 AM 5:19 PM
New Moon, 0% visible
Pressure 30.17 in
Visibility 4.0 miles
Clouds Mostly Cloudy 2500 ft
Overcast 4800 ft
Dew Point 44 °F
Humidity 83%
Rainfall 0.02 in
Snow Depth Not available.
UV 0 out of 12
Pollen 2.60 out of 12
Air Quality Not available.
Flu Activity Not available.
SPECI KCAE 220130Z 07005KT 4SM RA BKN025 OVC048 09/07 A3017 RMK AO2 P0004 T00940067

More Conditions Fewer Conditions

Pressure 30.17 in
Visibility 4.0 miles
Clouds Mostly Cloudy 2500 ft
Overcast 4800 ft
Dew Point 44 °F
Humidity 83%
Rainfall 0.02 in
Snow Depth Not available.
UV 0 out of 12
Pollen 2.60 out of 12
Air Quality Not available.
Flu Activity Not available.
SPECI KCAE 220130Z 07005KT 4SM RA BKN025 OVC048 09/07 A3017 RMK AO2 P0004 T00940067

More Conditions Fewer Conditions

10-Day Weather Forecast

Almanac

Astronomy

Dec. 21, 2014 Rise Set
Actual Time
Civil Twilight
Nautical Twilight
Astronomical Twilight
Moon
Length of Visible Light
Length of Day
Tomorrow will be .
, % of the Moon is Illuminated

Today's Extremes

State Highs State Lows

Community

WunderPhotos

Upload Photos

1,779,519 photos uploaded!

WunderBlogs® & News

Nearby

Air Quality

  Air Quality AQ Index Pollutant
Not available.

Snow Depth

Station Depth Elevation

Earthquake Activity

City Distance Mag. Time & Date
Minimum magnitude displayed is 2.5.

Coastal Water Temperatures

Place Temperature

Nearby Weather Stations